Time;durP1;ratioP1;P1;durP2;ratioP2;P2;SDS_P1;SDS_P2;PMS_P1;PMS_P2;Temp;Humidity;BMP_temperature;BMP_pressure;BME280_temperature;BME280_humidity;BME280_pressure;Samples;Min_cycle;Max_cycle;Signal;HPM_P1;HPM_P2
2021/07/25 00:00:57;;;;;;;9.68;6.05;;;;;;;;;;5033507;28;20034;-67
2021/07/25 00:03:23;;;;;;;9.98;6.40;;;;;;;;;;5034441;28;20048;-67
2021/07/25 00:05:49;;;;;;;8.70;6.57;;;;;;;;;;5052584;28;20017;-68
2021/07/25 00:08:15;;;;;;;9.55;6.15;;;;;;;;;;5053178;28;20056;-67
2021/07/25 00:10:42;;;;;;;10.65;6.55;;;;;;;;;;5053610;28;20021;-67
2021/07/25 00:13:09;;;;;;;8.02;5.53;;;;;;;;;;5053341;28;20059;-67
2021/07/25 00:15:36;;;;;;;9.68;6.03;;;;;;;;;;5032856;28;20025;-67
2021/07/25 00:18:02;;;;;;;7.30;5.65;;;;;;;;;;5032744;28;20542;-68
2021/07/25 00:20:28;;;;;;;8.35;6.13;;;;;;;;;;5033191;28;20473;-68
2021/07/25 00:22:54;;;;;;;8.05;6.15;;;;;;;;;;5033213;28;20049;-68
2021/07/25 00:25:20;;;;;;;8.75;6.30;;;;;;;;;;5033369;28;20017;-69
2021/07/25 00:27:52;;;;;;;10.05;6.75;;;;;;;;;;5032523;28;20025;-69
2021/07/25 00:30:18;;;;;;;8.48;6.40;;;;;;;;;;5033164;28;20037;-69
2021/07/25 00:32:44;;;;;;;9.15;6.90;;;;;;;;;;5033072;28;20488;-68
2021/07/25 00:35:10;;;;;;;7.70;6.15;;;;;;;;;;5031961;28;20038;-68
2021/07/25 00:37:37;;;;;;;7.85;6.55;;;;;;;;;;5013929;28;20469;-68
2021/07/25 00:40:03;;;;;;;8.60;5.80;;;;;;;;;;5032291;28;20072;-68
2021/07/25 00:42:39;;;;;;;8.30;6.68;;;;;;;;;;5031403;28;20053;-69
2021/07/25 00:45:06;;;;;;;7.35;6.28;;;;;;;;;;5032619;28;20065;-68
2021/07/25 00:47:32;;;;;;;10.52;6.72;;;;;;;;;;5032355;28;20022;-68
2021/07/25 00:49:58;;;;;;;8.63;7.03;;;;;;;;;;5032527;28;20036;-67
2021/07/25 00:52:24;;;;;;;8.20;5.70;;;;;;;;;;5032673;28;20142;-68
2021/07/25 00:54:50;;;;;;;7.85;6.32;;;;;;;;;;5026647;28;20034;-69
2021/07/25 00:57:17;;;;;;;8.43;6.35;;;;;;;;;;4995335;28;20109;-68
2021/07/25 00:59:43;;;;;;;9.95;6.25;;;;;;;;;;5012852;28;20461;-68
2021/07/25 01:02:09;;;;;;;7.18;6.15;;;;;;;;;;5013042;28;20105;-68
2021/07/25 01:04:35;;;;;;;9.93;6.95;;;;;;;;;;5030046;28;20026;-67
2021/07/25 01:07:01;;;;;;;10.90;7.13;;;;;;;;;;5032646;28;20026;-68
2021/07/25 01:09:46;;;;;;;7.90;6.65;;;;;;;;;;5032681;28;20037;-67
2021/07/25 01:12:16;;;;;;;10.32;7.07;;;;;;;;;;5031239;28;20463;-68
2021/07/25 01:14:44;;;;;;;11.45;7.40;;;;;;;;;;5032646;28;20096;-68
2021/07/25 01:17:22;;;;;;;10.07;7.47;;;;;;;;;;5032651;28;20021;-68
2021/07/25 01:19:49;;;;;;;8.77;7.57;;;;;;;;;;5032388;28;20033;-68
2021/07/25 01:22:15;;;;;;;11.93;6.88;;;;;;;;;;5032404;28;20032;-68
2021/07/25 01:24:42;;;;;;;9.23;7.43;;;;;;;;;;5031479;28;20084;-67
2021/07/25 01:27:09;;;;;;;9.15;6.93;;;;;;;;;;5031672;28;20040;-69
2021/07/25 01:29:35;;;;;;;8.00;6.30;;;;;;;;;;5032491;28;20017;-67
2021/07/25 01:32:02;;;;;;;8.43;7.05;;;;;;;;;;5014251;28;20026;-68
2021/07/25 01:34:29;;;;;;;10.40;6.78;;;;;;;;;;5032325;28;20049;-68
2021/07/25 01:36:55;;;;;;;10.27;7.15;;;;;;;;;;5020369;28;20022;-68
2021/07/25 01:39:22;;;;;;;9.15;7.55;;;;;;;;;;5010789;28;20117;-68
2021/07/25 01:41:48;;;;;;;12.25;7.68;;;;;;;;;;5012484;28;20077;-68
2021/07/25 01:44:14;;;;;;;12.75;7.25;;;;;;;;;;5012394;28;20156;-68
2021/07/25 01:46:40;;;;;;;9.80;7.10;;;;;;;;;;5012824;28;20072;-67
2021/07/25 01:49:06;;;;;;;8.18;6.65;;;;;;;;;;5012829;28;20105;-69
2021/07/25 01:51:32;;;;;;;10.57;6.88;;;;;;;;;;5012469;28;20030;-69
2021/07/25 01:53:58;;;;;;;9.93;7.03;;;;;;;;;;5014488;28;20029;-68
2021/07/25 01:56:24;;;;;;;9.50;6.85;;;;;;;;;;5016364;28;20496;-68
2021/07/25 01:58:50;;;;;;;11.02;6.53;;;;;;;;;;5017524;28;20030;-67
2021/07/25 02:01:17;;;;;;;8.13;6.85;;;;;;;;;;5016115;28;20030;-68
2021/07/25 02:03:43;;;;;;;12.00;6.72;;;;;;;;;;5016280;28;20028;-68
2021/07/25 02:06:09;;;;;;;9.80;6.22;;;;;;;;;;5016171;28;20053;-68
2021/07/25 02:08:35;;;;;;;8.70;6.43;;;;;;;;;;5032806;28;20472;-68
2021/07/25 02:11:01;;;;;;;8.48;6.60;;;;;;;;;;5035631;28;20068;-68
2021/07/25 02:13:27;;;;;;;8.15;6.68;;;;;;;;;;5035422;28;20029;-68
2021/07/25 02:15:54;;;;;;;10.68;6.45;;;;;;;;;;5036054;28;20021;-68
2021/07/25 02:18:20;;;;;;;7.57;6.20;;;;;;;;;;5035702;28;20029;-69
2021/07/25 02:20:48;;;;;;;7.80;6.20;;;;;;;;;;5035545;28;20026;-68
2021/07/25 02:23:14;;;;;;;8.20;6.80;;;;;;;;;;5035492;28;20017;-68
2021/07/25 02:25:40;;;;;;;8.65;6.20;;;;;;;;;;5034661;28;20022;-67
2021/07/25 02:28:07;;;;;;;7.68;6.70;;;;;;;;;;5035614;28;20476;-68
2021/07/25 02:30:33;;;;;;;9.52;6.63;;;;;;;;;;5034975;28;20037;-69
2021/07/25 02:32:59;;;;;;;7.50;6.07;;;;;;;;;;5036575;28;20032;-67
2021/07/25 02:35:25;;;;;;;8.40;6.63;;;;;;;;;;5035482;28;20395;-68
2021/07/25 02:37:51;;;;;;;8.77;6.78;;;;;;;;;;5015761;28;20022;-68
2021/07/25 02:40:17;;;;;;;8.02;6.03;;;;;;;;;;5015582;28;20038;-67
2021/07/25 02:42:43;;;;;;;10.05;6.93;;;;;;;;;;5015759;28;20022;-68
2021/07/25 02:45:10;;;;;;;10.63;7.40;;;;;;;;;;5015386;28;20567;-67
2021/07/25 02:47:36;;;;;;;12.07;7.85;;;;;;;;;;5015658;28;20022;-68
2021/07/25 02:50:02;;;;;;;12.15;7.78;;;;;;;;;;5027105;28;20056;-69
2021/07/25 02:52:28;;;;;;;11.10;7.88;;;;;;;;;;5034609;28;20028;-69
2021/07/25 02:54:54;;;;;;;9.77;7.50;;;;;;;;;;5035593;28;20029;-68
2021/07/25 02:57:20;;;;;;;11.82;8.60;;;;;;;;;;5035288;28;20105;-68
2021/07/25 02:59:46;;;;;;;11.85;8.07;;;;;;;;;;5037102;28;20052;-68
2021/07/25 03:02:15;;;;;;;12.80;7.75;;;;;;;;;;5035143;28;20017;-68
2021/07/25 03:04:41;;;;;;;11.60;7.95;;;;;;;;;;5034774;28;20022;-68
2021/07/25 03:07:08;;;;;;;11.68;7.47;;;;;;;;;;5034506;28;20034;-68
2021/07/25 03:09:34;;;;;;;11.65;7.40;;;;;;;;;;5032746;28;20025;-68
2021/07/25 03:12:00;;;;;;;11.98;8.30;;;;;;;;;;5034698;28;20022;-68
2021/07/25 03:14:26;;;;;;;10.30;7.70;;;;;;;;;;5038214;28;20028;-69
2021/07/25 03:16:52;;;;;;;11.40;7.03;;;;;;;;;;5034689;28;20484;-69
2021/07/25 03:19:18;;;;;;;10.45;7.10;;;;;;;;;;5034480;28;20025;-67
2021/07/25 03:21:44;;;;;;;11.52;8.18;;;;;;;;;;5034801;28;20025;-68
2021/07/25 03:24:10;;;;;;;9.95;7.40;;;;;;;;;;5034620;28;20021;-68
2021/07/25 03:26:36;;;;;;;9.15;6.95;;;;;;;;;;5034552;28;20017;-68
2021/07/25 03:29:03;;;;;;;8.55;7.00;;;;;;;;;;5033973;28;20439;-67
2021/07/25 03:31:29;;;;;;;10.00;6.70;;;;;;;;;;5034311;28;20030;-68
2021/07/25 03:33:55;;;;;;;9.23;6.25;;;;;;;;;;5033140;28;20381;-68
2021/07/25 03:36:22;;;;;;;11.90;6.75;;;;;;;;;;5026980;28;20022;-68
2021/07/25 03:38:48;;;;;;;10.30;7.32;;;;;;;;;;5014453;28;20030;-68
2021/07/25 03:41:14;;;;;;;10.15;6.82;;;;;;;;;;5014317;28;20030;-68
2021/07/25 03:43:40;;;;;;;11.90;7.75;;;;;;;;;;5014324;28;20538;-68
2021/07/25 03:46:07;;;;;;;10.45;7.28;;;;;;;;;;5014161;28;20050;-67
2021/07/25 03:48:33;;;;;;;10.10;6.90;;;;;;;;;;5016047;28;20392;-68
2021/07/25 03:50:59;;;;;;;9.02;6.55;;;;;;;;;;5033873;28;20030;-68
2021/07/25 03:53:25;;;;;;;10.07;7.28;;;;;;;;;;5033600;28;20045;-67
2021/07/25 03:55:51;;;;;;;8.95;6.50;;;;;;;;;;5033862;28;20388;-68
2021/07/25 03:58:17;;;;;;;10.32;7.30;;;;;;;;;;5033864;28;20036;-67
2021/07/25 04:00:43;;;;;;;10.88;6.97;;;;;;;;;;5033702;28;20393;-68
2021/07/25 04:03:09;;;;;;;10.68;8.07;;;;;;;;;;5032118;28;20029;-68
2021/07/25 04:05:35;;;;;;;9.77;7.38;;;;;;;;;;5033707;28;20511;-67
2021/07/25 04:08:08;;;;;;;11.35;7.55;;;;;;;;;;5033136;28;20029;-67
2021/07/25 04:10:38;;;;;;;11.38;7.43;;;;;;;;;;5033579;28;20026;-67
2021/07/25 04:13:04;;;;;;;10.23;7.60;;;;;;;;;;5034139;28;20093;-68
2021/07/25 04:15:30;;;;;;;9.93;7.45;;;;;;;;;;5033432;28;20029;-67
2021/07/25 04:17:56;;;;;;;9.23;6.80;;;;;;;;;;5033175;28;20025;-67
2021/07/25 04:20:23;;;;;;;10.75;7.32;;;;;;;;;;5033376;28;20026;-68
2021/07/25 04:22:49;;;;;;;12.63;8.60;;;;;;;;;;5033376;28;20053;-67
2021/07/25 04:25:15;;;;;;;11.15;7.13;;;;;;;;;;5032957;28;20035;-68
2021/07/25 04:27:41;;;;;;;9.68;7.28;;;;;;;;;;5033226;28;20491;-68
2021/07/25 04:30:07;;;;;;;9.82;7.25;;;;;;;;;;5032700;28;20063;-67
2021/07/25 04:32:33;;;;;;;8.95;6.88;;;;;;;;;;5032480;28;20098;-67
2021/07/25 04:35:00;;;;;;;9.48;7.05;;;;;;;;;;5032601;28;20532;-68
2021/07/25 04:37:28;;;;;;;11.27;7.30;;;;;;;;;;5016079;28;20018;-68
2021/07/25 04:39:54;;;;;;;12.55;7.95;;;;;;;;;;5013221;28;20072;-69
2021/07/25 04:42:22;;;;;;;11.48;6.97;;;;;;;;;;5013290;28;20096;-68
2021/07/25 04:45:08;;;;;;;12.80;8.48;;;;;;;;;;5024088;28;20045;-68
2021/07/25 04:47:35;;;;;;;12.57;7.90;;;;;;;;;;5032834;28;20582;-67
2021/07/25 04:50:05;;;;;;;13.57;8.32;;;;;;;;;;5033071;28;20416;-68
2021/07/25 04:52:38;;;;;;;12.43;8.10;;;;;;;;;;5032980;28;20029;-68
2021/07/25 04:55:05;;;;;;;10.27;7.95;;;;;;;;;;5032898;28;20021;-68
2021/07/25 04:57:36;;;;;;;9.57;7.85;;;;;;;;;;5032120;28;20058;-67
2021/07/25 05:00:02;;;;;;;13.45;8.57;;;;;;;;;;5032735;28;20080;-68
2021/07/25 05:02:31;;;;;;;9.30;7.22;;;;;;;;;;5032072;28;20100;-68
2021/07/25 05:04:57;;;;;;;10.15;7.13;;;;;;;;;;5032798;28;20074;-68
2021/07/25 05:07:23;;;;;;;14.35;8.73;;;;;;;;;;5032177;28;20036;-68
2021/07/25 05:09:49;;;;;;;13.65;8.48;;;;;;;;;;5032301;28;20028;-68
2021/07/25 05:12:18;;;;;;;13.80;8.48;;;;;;;;;;5032063;28;20029;-68
2021/07/25 05:15:08;;;;;;;10.73;7.47;;;;;;;;;;5032804;28;20026;-68
2021/07/25 05:17:42;;;;;;;14.50;8.15;;;;;;;;;;5024392;28;20034;-68
2021/07/25 05:20:14;;;;;;;13.18;8.93;;;;;;;;;;5032615;28;20053;-68
2021/07/25 05:22:43;;;;;;;12.27;7.70;;;;;;;;;;5032667;28;20366;-68
2021/07/25 05:25:10;;;;;;;10.55;7.78;;;;;;;;;;5032776;28;20431;-68
2021/07/25 05:27:43;;;;;;;11.45;8.10;;;;;;;;;;5032750;28;20022;-68
2021/07/25 05:30:10;;;;;;;13.07;8.18;;;;;;;;;;5038696;28;20415;-67
2021/07/25 05:32:36;;;;;;;10.60;7.60;;;;;;;;;;5039448;28;20409;-68
2021/07/25 05:35:03;;;;;;;11.27;7.53;;;;;;;;;;5038680;28;20101;-68
2021/07/25 05:37:29;;;;;;;13.40;7.10;;;;;;;;;;5038489;28;20029;-67
2021/07/25 05:39:55;;;;;;;10.32;8.23;;;;;;;;;;5038671;28;20030;-67
2021/07/25 05:42:21;;;;;;;11.55;7.43;;;;;;;;;;5038518;28;20014;-68
2021/07/25 05:44:47;;;;;;;10.30;7.22;;;;;;;;;;5038498;28;20045;-68
2021/07/25 05:47:13;;;;;;;10.82;7.40;;;;;;;;;;5038432;28;20024;-68
2021/07/25 05:49:39;;;;;;;11.10;7.28;;;;;;;;;;5038510;28;20076;-68
2021/07/25 05:52:05;;;;;;;9.45;7.15;;;;;;;;;;5038738;28;20036;-68
2021/07/25 05:54:31;;;;;;;11.80;7.82;;;;;;;;;;5038218;28;20091;-67
2021/07/25 05:56:57;;;;;;;11.10;7.45;;;;;;;;;;5038694;28;20104;-68
2021/07/25 05:59:24;;;;;;;10.57;7.70;;;;;;;;;;5038495;28;20029;-68
2021/07/25 06:01:50;;;;;;;8.85;6.75;;;;;;;;;;5038581;28;20101;-68
2021/07/25 06:04:16;;;;;;;11.77;6.57;;;;;;;;;;5038757;28;20630;-67
2021/07/25 06:06:42;;;;;;;10.07;7.03;;;;;;;;;;5038702;28;20025;-68
2021/07/25 06:09:08;;;;;;;9.93;6.82;;;;;;;;;;5038556;28;20559;-68
2021/07/25 06:11:34;;;;;;;13.38;7.38;;;;;;;;;;5039035;28;20029;-69
2021/07/25 06:14:01;;;;;;;8.45;6.38;;;;;;;;;;5038423;28;20040;-68
2021/07/25 06:16:27;;;;;;;9.20;6.88;;;;;;;;;;5038752;28;20029;-67
2021/07/25 06:18:53;;;;;;;11.65;8.68;;;;;;;;;;5020902;28;20075;-67
2021/07/25 06:21:19;;;;;;;12.00;7.65;;;;;;;;;;5038286;28;20029;-67
2021/07/25 06:23:49;;;;;;;9.93;6.85;;;;;;;;;;5038809;28;20028;-67
2021/07/25 06:26:16;;;;;;;9.13;7.03;;;;;;;;;;5038463;28;20053;-67
2021/07/25 06:28:42;;;;;;;11.82;6.88;;;;;;;;;;5038417;28;20045;-64
2021/07/25 06:31:08;;;;;;;9.45;7.38;;;;;;;;;;5038392;28;20021;-69
2021/07/25 06:33:34;;;;;;;9.50;6.80;;;;;;;;;;5039170;28;20534;-67
2021/07/25 06:36:01;;;;;;;10.27;7.05;;;;;;;;;;5045803;28;20101;-67
2021/07/25 06:38:27;;;;;;;11.75;7.72;;;;;;;;;;5053145;28;20029;-68
2021/07/25 06:40:55;;;;;;;11.70;6.95;;;;;;;;;;5055278;28;20033;-68
2021/07/25 06:43:21;;;;;;;10.90;6.63;;;;;;;;;;5055135;28;20025;-67
2021/07/25 06:45:48;;;;;;;10.73;7.10;;;;;;;;;;5054921;28;20049;-67
2021/07/25 06:48:21;;;;;;;10.35;7.18;;;;;;;;;;5040123;28;20022;-68
2021/07/25 06:50:48;;;;;;;11.88;7.70;;;;;;;;;;5035177;28;20026;-69
2021/07/25 06:53:14;;;;;;;9.68;7.95;;;;;;;;;;5034700;28;20033;-69
2021/07/25 06:55:41;;;;;;;11.70;8.85;;;;;;;;;;5035050;28;20029;-69
2021/07/25 06:58:07;;;;;;;10.80;7.85;;;;;;;;;;5033917;28;20133;-70
2021/07/25 07:00:34;;;;;;;13.32;7.03;;;;;;;;;;5034423;28;20476;-69
2021/07/25 07:03:01;;;;;;;9.82;6.75;;;;;;;;;;5034180;28;20063;-69
2021/07/25 07:05:28;;;;;;;11.82;7.65;;;;;;;;;;5034739;28;20017;-68
2021/07/25 07:07:55;;;;;;;11.43;8.38;;;;;;;;;;5034292;28;20037;-70
2021/07/25 07:10:22;;;;;;;9.77;7.40;;;;;;;;;;5016545;28;20057;-68
2021/07/25 07:12:51;;;;;;;11.77;7.63;;;;;;;;;;5014816;28;20539;-69
2021/07/25 07:15:17;;;;;;;10.30;7.28;;;;;;;;;;5021617;28;20025;-68
2021/07/25 07:17:44;;;;;;;10.75;7.57;;;;;;;;;;5034706;28;20384;-69
2021/07/25 07:20:11;;;;;;;10.13;7.70;;;;;;;;;;5034751;28;20021;-69
2021/07/25 07:22:37;;;;;;;10.23;7.63;;;;;;;;;;5034589;28;20132;-68
2021/07/25 07:25:04;;;;;;;10.98;7.53;;;;;;;;;;5034134;28;20021;-68
2021/07/25 07:27:31;;;;;;;11.20;7.63;;;;;;;;;;5033723;28;20040;-69
2021/07/25 07:29:57;;;;;;;12.13;8.10;;;;;;;;;;5016225;28;20026;-68
2021/07/25 07:32:24;;;;;;;11.20;8.00;;;;;;;;;;5033717;28;20056;-69
2021/07/25 07:34:50;;;;;;;10.95;7.95;;;;;;;;;;5033516;28;20017;-68
2021/07/25 07:37:16;;;;;;;12.13;8.25;;;;;;;;;;5027801;28;20018;-69
2021/07/25 07:39:42;;;;;;;13.30;7.13;;;;;;;;;;5034115;28;20053;-68
2021/07/25 07:42:09;;;;;;;11.90;9.20;;;;;;;;;;5033716;28;20045;-67
2021/07/25 07:44:36;;;;;;;12.45;8.43;;;;;;;;;;5033940;28;20044;-68
2021/07/25 07:47:03;;;;;;;11.43;8.27;;;;;;;;;;5033733;28;20392;-67
2021/07/25 07:49:29;;;;;;;12.35;8.13;;;;;;;;;;5033809;28;20049;-68
2021/07/25 07:51:55;;;;;;;13.35;9.05;;;;;;;;;;5032978;28;20029;-67
2021/07/25 07:54:21;;;;;;;11.80;8.80;;;;;;;;;;5033937;28;20409;-68
2021/07/25 07:56:47;;;;;;;12.10;8.32;;;;;;;;;;5033812;28;20033;-68
2021/07/25 07:59:14;;;;;;;13.65;8.02;;;;;;;;;;5033821;28;20100;-67
2021/07/25 08:01:40;;;;;;;11.63;8.02;;;;;;;;;;5033737;28;20030;-67
2021/07/25 08:04:06;;;;;;;13.05;8.43;;;;;;;;;;5033985;28;20029;-68
2021/07/25 08:06:32;;;;;;;10.73;7.20;;;;;;;;;;5033353;28;20107;-68
2021/07/25 08:08:59;;;;;;;11.02;7.82;;;;;;;;;;5032664;28;20488;-67
2021/07/25 08:11:25;;;;;;;10.93;7.70;;;;;;;;;;5033309;28;20033;-67
2021/07/25 08:13:51;;;;;;;9.80;7.85;;;;;;;;;;5033092;28;20028;-66
2021/07/25 08:16:17;;;;;;;10.00;7.10;;;;;;;;;;5032613;28;20052;-66
2021/07/25 08:18:43;;;;;;;9.52;7.22;;;;;;;;;;5033340;28;20026;-69
2021/07/25 08:21:10;;;;;;;14.02;7.65;;;;;;;;;;5033592;28;20499;-69
2021/07/25 08:23:36;;;;;;;11.23;6.78;;;;;;;;;;5033317;28;20031;-69
2021/07/25 08:26:02;;;;;;;9.00;6.88;;;;;;;;;;5033465;28;20029;-69
2021/07/25 08:28:30;;;;;;;9.00;6.80;;;;;;;;;;5033457;28;20415;-69
2021/07/25 08:30:56;;;;;;;8.55;6.70;;;;;;;;;;5032945;28;20033;-69
2021/07/25 08:33:22;;;;;;;10.35;6.10;;;;;;;;;;5033079;28;20029;-68
2021/07/25 08:35:48;;;;;;;8.43;6.43;;;;;;;;;;5030849;28;20037;-69
2021/07/25 08:38:15;;;;;;;9.75;6.03;;;;;;;;;;5033496;28;20388;-69
2021/07/25 08:40:43;;;;;;;10.90;6.57;;;;;;;;;;5032367;28;20028;-69
2021/07/25 08:43:10;;;;;;;8.13;6.10;;;;;;;;;;5032898;28;20025;-69
2021/07/25 08:45:38;;;;;;;8.02;6.30;;;;;;;;;;5032937;28;20037;-69
2021/07/25 08:48:10;;;;;;;10.35;6.20;;;;;;;;;;5032624;28;20684;-69
2021/07/25 08:50:36;;;;;;;7.22;6.10;;;;;;;;;;5013279;28;20105;-66
2021/07/25 08:53:04;;;;;;;10.95;6.43;;;;;;;;;;5020135;28;20060;-71
2021/07/25 08:55:30;;;;;;;9.07;5.95;;;;;;;;;;5032575;28;20511;-70
2021/07/25 08:57:57;;;;;;;9.48;6.07;;;;;;;;;;5032811;28;20037;-70
2021/07/25 09:00:23;;;;;;;9.50;6.03;;;;;;;;;;5027834;28;20380;-69
2021/07/25 09:02:50;;;;;;;8.13;6.07;;;;;;;;;;5031578;28;20029;-70
2021/07/25 09:05:17;;;;;;;9.18;6.38;;;;;;;;;;5032153;28;20052;-69
2021/07/25 09:07:48;;;;;;;8.27;5.68;;;;;;;;;;5031929;28;20025;-69
2021/07/25 09:10:18;;;;;;;10.50;5.97;;;;;;;;;;5032410;28;20053;-69
2021/07/25 09:12:45;;;;;;;7.43;5.68;;;;;;;;;;5031882;28;20040;-70
2021/07/25 09:15:16;;;;;;;8.65;5.82;;;;;;;;;;5031596;28;20041;-69
2021/07/25 09:17:42;;;;;;;7.97;6.15;;;;;;;;;;5032331;28;20029;-70
2021/07/25 09:20:11;;;;;;;7.90;5.85;;;;;;;;;;5031747;28;20041;-70
2021/07/25 09:22:39;;;;;;;7.03;5.65;;;;;;;;;;5032135;28;20053;-69
2021/07/25 09:25:05;;;;;;;8.55;5.85;;;;;;;;;;5032394;28;20497;-69
2021/07/25 09:27:31;;;;;;;7.22;5.88;;;;;;;;;;5031525;28;20026;-68
2021/07/25 09:29:57;;;;;;;7.38;5.43;;;;;;;;;;5031969;28;20056;-68
2021/07/25 09:32:23;;;;;;;8.73;5.90;;;;;;;;;;5030959;28;20033;-68
2021/07/25 09:34:53;;;;;;;7.60;5.65;;;;;;;;;;5031577;28;20508;-69
2021/07/25 09:37:20;;;;;;;7.32;5.45;;;;;;;;;;5023442;28;20026;-69
2021/07/25 09:39:47;;;;;;;7.47;5.93;;;;;;;;;;5031975;28;20017;-69
2021/07/25 09:42:13;;;;;;;7.60;5.57;;;;;;;;;;5031882;28;20044;-68
2021/07/25 09:44:45;;;;;;;7.53;5.63;;;;;;;;;;5013996;28;20042;-68
2021/07/25 09:47:25;;;;;;;7.15;5.10;;;;;;;;;;5032013;28;20376;-69
2021/07/25 09:49:51;;;;;;;6.70;5.60;;;;;;;;;;5031472;28;20369;-68
2021/07/25 09:52:17;;;;;;;6.95;6.07;;;;;;;;;;5031987;28;20075;-69
2021/07/25 09:54:44;;;;;;;7.95;5.00;;;;;;;;;;5031418;28;20101;-68
2021/07/25 09:57:13;;;;;;;9.63;5.63;;;;;;;;;;5031139;28;20021;-69
2021/07/25 09:59:39;;;;;;;7.85;5.35;;;;;;;;;;5031046;28;20029;-69
2021/07/25 10:02:05;;;;;;;6.28;5.40;;;;;;;;;;5031276;28;20412;-68
2021/07/25 10:04:31;;;;;;;7.07;5.75;;;;;;;;;;5031478;28;20037;-69
2021/07/25 10:07:01;;;;;;;6.40;4.97;;;;;;;;;;5031965;28;20029;-69
2021/07/25 10:09:27;;;;;;;10.00;5.60;;;;;;;;;;5030199;28;20476;-69
2021/07/25 10:11:55;;;;;;;7.43;5.47;;;;;;;;;;5031028;28;20029;-70
2021/07/25 10:14:21;;;;;;;7.75;4.78;;;;;;;;;;5030977;28;20056;-69
2021/07/25 10:16:59;;;;;;;7.82;5.45;;;;;;;;;;5035389;28;20036;-69
2021/07/25 10:19:31;;;;;;;9.00;6.05;;;;;;;;;;5035412;28;20478;-69
2021/07/25 10:21:57;;;;;;;7.68;5.70;;;;;;;;;;5034855;28;20029;-69
2021/07/25 10:24:25;;;;;;;9.55;5.72;;;;;;;;;;5034856;28;20034;-69
2021/07/25 10:26:54;;;;;;;8.38;5.10;;;;;;;;;;5034714;28;20022;-69
2021/07/25 10:29:23;;;;;;;7.45;5.50;;;;;;;;;;5034627;28;20115;-69
2021/07/25 10:31:50;;;;;;;6.60;5.28;;;;;;;;;;5034937;28;20108;-69
2021/07/25 10:34:17;;;;;;;7.22;4.93;;;;;;;;;;5034626;28;20021;-70
2021/07/25 10:36:45;;;;;;;6.72;6.00;;;;;;;;;;5031700;28;20021;-69
2021/07/25 10:39:11;;;;;;;8.07;5.97;;;;;;;;;;5034587;28;20083;-70
2021/07/25 10:41:38;;;;;;;8.25;5.20;;;;;;;;;;5034594;28;20095;-69
2021/07/25 10:44:04;;;;;;;6.47;5.32;;;;;;;;;;5034244;28;20025;-70
2021/07/25 10:46:32;;;;;;;6.45;5.85;;;;;;;;;;5034601;28;20144;-69
2021/07/25 10:49:09;;;;;;;6.95;5.72;;;;;;;;;;5034972;28;20506;-69
2021/07/25 10:51:54;;;;;;;6.28;5.18;;;;;;;;;;5017800;28;20040;-70
2021/07/25 10:54:20;;;;;;;;;;;;;;;;;;5034906;28;20380;-70
2021/07/25 10:57:10;;;;;;;7.95;5.00;;;;;;;;;;5034429;28;19909;-69
2021/07/25 10:59:45;;;;;;;6.47;5.78;;;;;;;;;;5020352;28;20061;-70
2021/07/25 11:02:33;;;;;;;5.85;5.10;;;;;;;;;;5034357;28;20033;-69
2021/07/25 11:04:59;;;;;;;6.30;5.20;;;;;;;;;;5033614;28;20192;-70
2021/07/25 11:07:25;;;;;;;6.10;5.10;;;;;;;;;;5034323;28;20075;-69
2021/07/25 11:09:54;;;;;;;5.97;5.05;;;;;;;;;;5033900;28;20021;-69
2021/07/25 11:12:20;;;;;;;5.85;5.25;;;;;;;;;;5034744;28;20473;-69
2021/07/25 11:15:07;;;;;;;10.10;5.70;;;;;;;;;;5033535;28;20112;-68
2021/07/25 11:17:45;;;;;;;6.72;5.60;;;;;;;;;;5034533;28;20053;-69
2021/07/25 11:20:30;;;;;;;7.00;5.65;;;;;;;;;;5033689;28;20021;-70
2021/07/25 11:22:56;;;;;;;8.93;5.18;;;;;;;;;;5034025;28;20029;-69
2021/07/25 11:25:31;;;;;;;6.50;5.20;;;;;;;;;;5033693;28;20098;-69
2021/07/25 11:27:57;;;;;;;6.15;5.53;;;;;;;;;;5032734;28;20064;-70
2021/07/25 11:30:41;;;;;;;6.72;5.18;;;;;;;;;;5033587;28;20104;-70
2021/07/25 11:33:08;;;;;;;6.13;4.45;;;;;;;;;;5028517;28;20084;-69
2021/07/25 11:35:34;;;;;;;5.82;4.53;;;;;;;;;;5032743;28;20025;-70
2021/07/25 11:38:01;;;;;;;5.25;4.75;;;;;;;;;;5033266;28;20399;-69
2021/07/25 11:40:28;;;;;;;6.00;4.68;;;;;;;;;;5033554;28;20407;-70
2021/07/25 11:42:54;;;;;;;5.80;4.82;;;;;;;;;;5033455;28;20033;-69
2021/07/25 11:45:27;;;;;;;7.20;4.97;;;;;;;;;;5032877;28;20505;-69
2021/07/25 11:47:53;;;;;;;8.15;4.68;;;;;;;;;;5033747;28;20025;-69
2021/07/25 11:50:38;;;;;;;5.88;4.88;;;;;;;;;;5033879;28;20082;-70
2021/07/25 11:53:04;;;;;;;5.93;4.40;;;;;;;;;;5034118;28;20417;-70
2021/07/25 11:55:30;;;;;;;6.38;5.30;;;;;;;;;;5033870;28;20025;-69
2021/07/25 11:58:12;;;;;;;6.22;5.00;;;;;;;;;;5033830;28;20026;-70
2021/07/25 12:00:38;;;;;;;5.72;4.35;;;;;;;;;;5033974;28;20102;-69
2021/07/25 12:03:04;;;;;;;5.63;4.22;;;;;;;;;;5016357;28;20187;-69
2021/07/25 12:05:31;;;;;;;6.90;4.82;;;;;;;;;;5033791;28;20049;-69
2021/07/25 12:08:10;;;;;;;6.22;4.38;;;;;;;;;;5033486;28;20379;-69
2021/07/25 12:10:36;;;;;;;6.05;4.63;;;;;;;;;;5033757;28;20073;-69
2021/07/25 12:13:08;;;;;;;5.38;3.97;;;;;;;;;;5033591;28;20014;-69
2021/07/25 12:15:38;;;;;;;6.75;4.03;;;;;;;;;;5033928;28;20430;-68
2021/07/25 12:18:06;;;;;;;5.60;4.57;;;;;;;;;;5016237;28;20497;-68
2021/07/25 12:20:36;;;;;;;5.15;4.43;;;;;;;;;;5033460;28;20049;-68
2021/07/25 12:23:07;;;;;;;5.35;4.22;;;;;;;;;;5033322;28;20087;-68
2021/07/25 12:25:37;;;;;;;6.32;4.50;;;;;;;;;;5033228;28;20021;-68
2021/07/25 12:28:07;;;;;;;4.97;4.47;;;;;;;;;;5033097;28;20021;-69
2021/07/25 12:30:45;;;;;;;5.85;5.15;;;;;;;;;;5032579;28;20031;-70
2021/07/25 12:33:16;;;;;;;5.75;4.20;;;;;;;;;;5032609;28;20510;-69
2021/07/25 12:35:42;;;;;;;5.75;4.53;;;;;;;;;;5032159;28;20025;-70
2021/07/25 12:38:09;;;;;;;6.32;4.55;;;;;;;;;;5031994;28;20160;-70
2021/07/25 12:40:45;;;;;;;5.65;4.65;;;;;;;;;;5031830;28;20033;-70
2021/07/25 12:43:16;;;;;;;6.28;4.93;;;;;;;;;;5045540;28;20025;-70
2021/07/25 12:45:42;;;;;;;5.72;4.47;;;;;;;;;;5033971;28;20515;-68
2021/07/25 12:48:11;;;;;;;4.93;4.25;;;;;;;;;;5034437;28;20021;-70
2021/07/25 12:50:55;;;;;;;4.80;4.30;;;;;;;;;;5032370;28;20587;-69
2021/07/25 12:53:28;;;;;;;7.05;4.45;;;;;;;;;;5032566;28;20036;-71
2021/07/25 12:55:55;;;;;;;5.57;4.55;;;;;;;;;;5026444;28;20026;-71
2021/07/25 12:58:25;;;;;;;8.10;5.00;;;;;;;;;;5031930;28;20045;-70
2021/07/25 13:06:09;;;;;;;6.40;4.97;;;;;;;;;;5032657;28;20084;-70
2021/07/25 13:08:35;;;;;;;6.13;4.93;;;;;;;;;;5031674;28;20040;-69
2021/07/25 13:11:02;;;;;;;6.47;4.60;;;;;;;;;;5029151;28;20036;-70
2021/07/25 13:13:28;;;;;;;8.20;5.10;;;;;;;;;;5031674;28;20092;-70
2021/07/25 13:15:54;;;;;;;5.05;4.55;;;;;;;;;;5031838;28;20041;-69
2021/07/25 13:18:22;;;;;;;6.95;4.80;;;;;;;;;;5032051;28;20515;-70
2021/07/25 13:20:48;;;;;;;4.40;3.95;;;;;;;;;;5012579;28;20033;-69
2021/07/25 13:23:14;;;;;;;4.53;4.03;;;;;;;;;;5019475;28;20021;-68
2021/07/25 13:25:40;;;;;;;4.88;4.00;;;;;;;;;;5032368;28;20052;-69
2021/07/25 13:28:06;;;;;;;5.97;4.57;;;;;;;;;;5031788;28;20030;-69
2021/07/25 13:30:33;;;;;;;5.22;4.70;;;;;;;;;;5032139;28;20476;-69
2021/07/25 13:32:59;;;;;;;4.78;4.00;;;;;;;;;;5031861;28;20032;-70
2021/07/25 13:35:25;;;;;;;4.82;3.95;;;;;;;;;;5031724;28;20036;-70
2021/07/25 13:37:51;;;;;;;5.60;4.25;;;;;;;;;;5025952;28;20034;-69
2021/07/25 13:40:17;;;;;;;6.25;4.13;;;;;;;;;;5031545;28;20041;-69
2021/07/25 13:42:43;;;;;;;5.43;4.30;;;;;;;;;;5031694;28;20091;-70
2021/07/25 13:45:10;;;;;;;8.50;4.18;;;;;;;;;;5031685;28;20072;-70
2021/07/25 13:47:39;;;;;;;5.60;4.07;;;;;;;;;;5031360;28;20595;-70
2021/07/25 13:50:06;;;;;;;6.25;4.25;;;;;;;;;;5033881;28;20032;-70
2021/07/25 13:52:32;;;;;;;5.07;4.20;;;;;;;;;;5035698;28;20032;-70
2021/07/25 13:54:58;;;;;;;5.72;4.65;;;;;;;;;;5018150;28;20033;-71
2021/07/25 13:57:25;;;;;;;5.43;3.92;;;;;;;;;;5035398;28;20029;-69
2021/07/25 13:59:51;;;;;;;5.65;4.10;;;;;;;;;;5035607;28;20017;-70
2021/07/25 14:02:17;;;;;;;5.78;4.13;;;;;;;;;;5035835;28;20026;-70
2021/07/25 14:04:43;;;;;;;6.65;4.40;;;;;;;;;;5035465;28;20025;-70
2021/07/25 14:07:09;;;;;;;4.55;4.13;;;;;;;;;;5035373;28;20431;-69
2021/07/25 14:09:35;;;;;;;4.45;3.53;;;;;;;;;;5035423;28;20033;-70
2021/07/25 14:12:01;;;;;;;5.07;4.38;;;;;;;;;;5035476;28;20064;-69
2021/07/25 14:14:30;;;;;;;5.55;4.40;;;;;;;;;;5035324;28;20030;-68
2021/07/25 14:17:00;;;;;;;6.80;4.03;;;;;;;;;;5034370;28;20025;-71
2021/07/25 14:19:26;;;;;;;4.50;4.07;;;;;;;;;;5035610;28;20025;-70
2021/07/25 14:21:52;;;;;;;4.57;3.95;;;;;;;;;;5035665;28;20026;-69
2021/07/25 14:24:18;;;;;;;4.80;4.07;;;;;;;;;;5034878;28;20021;-70
2021/07/25 14:26:44;;;;;;;4.50;4.10;;;;;;;;;;5034867;28;20025;-70
2021/07/25 14:29:11;;;;;;;5.72;4.22;;;;;;;;;;5035259;28;20025;-70
2021/07/25 14:31:37;;;;;;;5.40;3.90;;;;;;;;;;5034913;28;20022;-70
2021/07/25 14:34:03;;;;;;;4.07;3.70;;;;;;;;;;5034898;28;20029;-70
2021/07/25 14:36:29;;;;;;;5.30;4.28;;;;;;;;;;5031224;28;20428;-70
2021/07/25 14:38:57;;;;;;;4.35;3.95;;;;;;;;;;5035152;28;20033;-70
2021/07/25 14:41:23;;;;;;;4.97;4.15;;;;;;;;;;5040110;28;20033;-70
2021/07/25 14:43:52;;;;;;;4.13;3.80;;;;;;;;;;5034500;28;20103;-70
2021/07/25 14:46:18;;;;;;;5.10;4.38;;;;;;;;;;5034683;28;20049;-70